Time;durP1;ratioP1;P1;durP2;ratioP2;P2;SDS_P1;SDS_P2;PMS_P1;PMS_P2;Temp;Humidity;BMP_temperature;BMP_pressure;BME280_temperature;BME280_humidity;BME280_pressure;Samples;Min_cycle;Max_cycle;Signal;HPM_P1;HPM_P2
2023/06/01 00:00:46;;;;;;;10.18;6.05;;;;;;;;;;4998820;28;20629;-60
2023/06/01 00:03:14;;;;;;;11.80;5.40;;;;;;;;;;5014666;28;20046;-59
2023/06/01 00:05:40;;;;;;;12.38;5.97;;;;;;;;;;5015354;28;20423;-60
2023/06/01 00:08:06;;;;;;;9.98;5.82;;;;;;;;;;4994809;28;20046;-59
2023/06/01 00:10:33;;;;;;;10.48;5.72;;;;;;;;;;5010812;28;20052;-60
2023/06/01 00:12:59;;;;;;;10.68;5.95;;;;;;;;;;5014264;28;20042;-60
2023/06/01 00:15:25;;;;;;;8.23;5.50;;;;;;;;;;5016839;28;20053;-60
2023/06/01 00:17:51;;;;;;;12.98;5.88;;;;;;;;;;5016048;28;20549;-60
2023/06/01 00:20:18;;;;;;;11.60;5.95;;;;;;;;;;5010358;28;20431;-60
2023/06/01 00:22:44;;;;;;;8.73;5.07;;;;;;;;;;5027962;28;20194;-59
2023/06/01 00:25:10;;;;;;;10.15;6.05;;;;;;;;;;5020470;28;20484;-59
2023/06/01 00:27:36;;;;;;;9.88;5.78;;;;;;;;;;5021256;28;20049;-59
2023/06/01 00:30:03;;;;;;;7.80;5.22;;;;;;;;;;5008931;28;20038;-59
2023/06/01 00:32:31;;;;;;;9.27;5.85;;;;;;;;;;5014828;28;20412;-60
2023/06/01 00:34:57;;;;;;;9.02;5.63;;;;;;;;;;5019529;28;20530;-60
2023/06/01 00:37:23;;;;;;;11.13;5.63;;;;;;;;;;5026972;28;20068;-59
2023/06/01 00:39:49;;;;;;;7.60;5.63;;;;;;;;;;5012342;28;20057;-60
2023/06/01 00:42:15;;;;;;;9.98;5.65;;;;;;;;;;4995733;28;20053;-59
2023/06/01 00:44:41;;;;;;;12.18;6.10;;;;;;;;;;5015166;28;20045;-59
2023/06/01 00:47:07;;;;;;;8.32;5.70;;;;;;;;;;4984142;28;20038;-60
2023/06/01 00:49:34;;;;;;;8.35;5.65;;;;;;;;;;5020876;28;20033;-59
2023/06/01 00:52:01;;;;;;;11.05;5.50;;;;;;;;;;5023008;28;20046;-59
2023/06/01 00:54:28;;;;;;;10.23;5.43;;;;;;;;;;5017874;28;20511;-59
2023/06/01 00:56:54;;;;;;;8.57;5.57;;;;;;;;;;5016220;28;20061;-59
2023/06/01 00:59:20;;;;;;;9.75;5.38;;;;;;;;;;4985886;28;20049;-59
2023/06/01 01:01:46;;;;;;;11.00;5.45;;;;;;;;;;4998048;28;20400;-59
2023/06/01 01:04:14;;;;;;;11.77;5.30;;;;;;;;;;5017931;28;20038;-58
2023/06/01 01:07:03;;;;;;;9.05;5.85;;;;;;;;;;5021377;28;20042;-59
2023/06/01 01:09:44;;;;;;;9.77;5.73;;;;;;;;;;5027306;28;20042;-60
2023/06/01 01:13:10;;;;;;;10.07;5.70;;;;;;;;;;5001651;28;20037;-59
2023/06/01 01:16:00;;;;;;;9.18;5.18;;;;;;;;;;4912920;29;20051;-60
2023/06/01 01:18:40;;;;;;;10.98;5.78;;;;;;;;;;4983529;28;20033;-59
2023/06/01 01:21:22;;;;;;;8.98;5.60;;;;;;;;;;5014968;28;20044;-59
2023/06/01 01:24:26;;;;;;;9.93;5.70;;;;;;;;;;5005660;28;20030;-59
2023/06/01 01:26:58;;;;;;;13.73;5.32;;;;;;;;;;5008231;28;20676;-59
2023/06/01 01:29:26;;;;;;;10.02;5.95;;;;;;;;;;4997503;28;20034;-60
2023/06/01 01:31:54;;;;;;;9.38;5.65;;;;;;;;;;4999759;28;20407;-59
2023/06/01 01:34:21;;;;;;;9.52;5.65;;;;;;;;;;5014133;28;20499;-59
2023/06/01 01:36:47;;;;;;;10.95;5.68;;;;;;;;;;5003819;28;20051;-60
2023/06/01 01:39:13;;;;;;;12.40;5.95;;;;;;;;;;5026085;28;20037;-58
2023/06/01 01:41:39;;;;;;;9.10;5.22;;;;;;;;;;4999401;28;20037;-58
2023/06/01 01:44:05;;;;;;;11.13;5.72;;;;;;;;;;5002104;28;20041;-58
2023/06/01 01:46:42;;;;;;;11.15;5.35;;;;;;;;;;4997648;28;20048;-59
2023/06/01 01:49:23;;;;;;;9.93;5.97;;;;;;;;;;5015909;28;20383;-59
2023/06/01 01:51:56;;;;;;;9.38;5.72;;;;;;;;;;5010314;28;20651;-59
2023/06/01 01:54:24;;;;;;;10.52;5.97;;;;;;;;;;4998813;28;20422;-60
2023/06/01 01:56:56;;;;;;;9.95;5.95;;;;;;;;;;5007313;28;20061;-59
2023/06/01 01:59:24;;;;;;;10.30;5.95;;;;;;;;;;5009215;28;20034;-59
2023/06/01 02:01:50;;;;;;;9.90;5.32;;;;;;;;;;5010460;28;20050;-58
2023/06/01 02:04:16;;;;;;;11.88;5.88;;;;;;;;;;5017368;28;20057;-58
2023/06/01 02:06:42;;;;;;;9.00;5.50;;;;;;;;;;5005005;28;20050;-59
2023/06/01 02:09:09;;;;;;;9.27;5.90;;;;;;;;;;4996871;28;20064;-58
2023/06/01 02:11:37;;;;;;;10.27;6.22;;;;;;;;;;5002043;28;20495;-60
2023/06/01 02:14:04;;;;;;;11.75;6.18;;;;;;;;;;4999251;28;20159;-59
2023/06/01 02:16:30;;;;;;;10.80;5.75;;;;;;;;;;5022486;28;20049;-58
2023/06/01 02:18:59;;;;;;;14.48;6.53;;;;;;;;;;5007196;28;20055;-59
2023/06/01 02:21:26;;;;;;;10.50;6.10;;;;;;;;;;5001400;28;20037;-59
2023/06/01 02:23:52;;;;;;;9.38;6.05;;;;;;;;;;5000657;28;20037;-59
2023/06/01 02:26:18;;;;;;;10.73;6.38;;;;;;;;;;5025268;28;20049;-59
2023/06/01 02:28:44;;;;;;;10.02;6.15;;;;;;;;;;5015946;28;20038;-59
2023/06/01 02:31:13;;;;;;;10.43;6.00;;;;;;;;;;4993109;28;20075;-59
2023/06/01 02:33:39;;;;;;;10.82;6.22;;;;;;;;;;5018952;28;20045;-59
2023/06/01 02:36:06;;;;;;;12.30;6.18;;;;;;;;;;5008157;28;20045;-59
2023/06/01 02:38:32;;;;;;;12.02;6.55;;;;;;;;;;5012144;28;20046;-55
2023/06/01 02:40:58;;;;;;;9.95;6.75;;;;;;;;;;5009321;28;20045;-57
2023/06/01 02:43:24;;;;;;;13.85;7.10;;;;;;;;;;4998132;28;20507;-59
2023/06/01 02:45:51;;;;;;;11.43;6.90;;;;;;;;;;5004111;28;20474;-56
2023/06/01 02:48:17;;;;;;;10.65;6.63;;;;;;;;;;4994627;28;20064;-60
2023/06/01 02:50:43;;;;;;;11.60;6.35;;;;;;;;;;5008856;28;20025;-60
2023/06/01 02:53:10;;;;;;;13.05;7.07;;;;;;;;;;5008744;28;20510;-59
2023/06/01 02:55:36;;;;;;;11.15;6.75;;;;;;;;;;5002360;28;20041;-59
2023/06/01 02:58:22;;;;;;;11.65;7.00;;;;;;;;;;4999767;28;20050;-59
2023/06/01 03:01:03;;;;;;;15.13;7.32;;;;;;;;;;4997884;28;20419;-59
2023/06/01 03:03:30;;;;;;;11.80;6.78;;;;;;;;;;4998313;28;20045;-58
2023/06/01 03:05:57;;;;;;;13.23;6.57;;;;;;;;;;4998779;28;20398;-60
2023/06/01 03:08:41;;;;;;;12.52;6.75;;;;;;;;;;5014353;28;20029;-60
2023/06/01 03:11:13;;;;;;;10.30;6.72;;;;;;;;;;4998379;28;20053;-60
2023/06/01 03:13:40;;;;;;;15.50;7.07;;;;;;;;;;4995239;28;20050;-57
2023/06/01 03:16:06;;;;;;;10.68;6.65;;;;;;;;;;5017576;28;20045;-59
2023/06/01 03:18:32;;;;;;;13.93;7.53;;;;;;;;;;4989072;28;20052;-57
2023/06/01 03:20:58;;;;;;;12.65;7.60;;;;;;;;;;5000324;28;20050;-57
2023/06/01 03:23:25;;;;;;;17.45;7.32;;;;;;;;;;4997935;28;20049;-59
2023/06/01 03:25:55;;;;;;;11.65;6.90;;;;;;;;;;4998187;28;20044;-58
2023/06/01 03:28:21;;;;;;;15.80;7.78;;;;;;;;;;5004448;28;20133;-58
2023/06/01 03:30:47;;;;;;;13.55;7.70;;;;;;;;;;4995609;28;20574;-58
2023/06/01 03:33:14;;;;;;;17.40;7.80;;;;;;;;;;5014475;28;20061;-60
2023/06/01 03:35:41;;;;;;;10.88;7.10;;;;;;;;;;5000348;28;20033;-59
2023/06/01 03:38:07;;;;;;;16.30;7.75;;;;;;;;;;4998129;28;20147;-59
2023/06/01 03:40:33;;;;;;;15.68;8.00;;;;;;;;;;5021637;28;20053;-59
2023/06/01 03:42:59;;;;;;;12.25;7.47;;;;;;;;;;4997092;28;20034;-57
2023/06/01 03:45:25;;;;;;;15.30;7.85;;;;;;;;;;4997711;28;20056;-58
2023/06/01 03:47:52;;;;;;;14.50;8.20;;;;;;;;;;5016654;28;20041;-59
2023/06/01 03:50:18;;;;;;;15.95;8.40;;;;;;;;;;5001967;28;20062;-59
2023/06/01 03:52:45;;;;;;;14.57;8.95;;;;;;;;;;4992634;28;20096;-59
2023/06/01 03:55:13;;;;;;;16.33;7.80;;;;;;;;;;5015789;28;20054;-59
2023/06/01 03:57:57;;;;;;;14.70;8.18;;;;;;;;;;4998619;28;20029;-59
2023/06/01 04:00:24;;;;;;;14.68;8.32;;;;;;;;;;4995292;28;20057;-59
2023/06/01 04:02:56;;;;;;;14.57;8.52;;;;;;;;;;5020996;28;20037;-59
2023/06/01 04:05:25;;;;;;;18.02;8.63;;;;;;;;;;5004020;28;20053;-59
2023/06/01 04:07:54;;;;;;;15.93;8.63;;;;;;;;;;4996965;28;20053;-59
2023/06/01 04:10:21;;;;;;;16.65;8.52;;;;;;;;;;5007039;28;20407;-58
2023/06/01 04:12:48;;;;;;;16.48;8.43;;;;;;;;;;4994944;28;20042;-59
2023/06/01 04:15:16;;;;;;;15.40;9.07;;;;;;;;;;5006034;28;20635;-60
2023/06/01 04:17:43;;;;;;;15.95;8.50;;;;;;;;;;4996749;28;20041;-60
2023/06/01 04:20:15;;;;;;;17.10;9.18;;;;;;;;;;5005005;28;20041;-60
2023/06/01 04:22:42;;;;;;;18.45;8.88;;;;;;;;;;4995595;28;20042;-59
2023/06/01 04:25:11;;;;;;;18.02;9.70;;;;;;;;;;5012878;28;20058;-59
2023/06/01 04:27:46;;;;;;;15.88;9.73;;;;;;;;;;5006466;28;20388;-59
2023/06/01 04:30:15;;;;;;;17.63;9.52;;;;;;;;;;4994110;28;20049;-60
2023/06/01 04:32:44;;;;;;;20.70;10.75;;;;;;;;;;4998103;28;20057;-60
2023/06/01 04:35:11;;;;;;;21.38;10.02;;;;;;;;;;5003405;28;20037;-60
2023/06/01 04:37:39;;;;;;;23.73;11.07;;;;;;;;;;5003958;28;20053;-60
2023/06/01 04:40:07;;;;;;;21.98;11.45;;;;;;;;;;5006412;28;20040;-59
2023/06/01 04:42:36;;;;;;;19.00;10.15;;;;;;;;;;4996164;28;20030;-57
2023/06/01 04:45:07;;;;;;;18.50;10.75;;;;;;;;;;4997235;28;20421;-60
2023/06/01 04:47:40;;;;;;;20.52;10.80;;;;;;;;;;4992142;28;20057;-60
2023/06/01 04:50:15;;;;;;;19.58;10.85;;;;;;;;;;4996340;28;20046;-59
2023/06/01 04:52:42;;;;;;;21.88;11.65;;;;;;;;;;5006426;28;20041;-59
2023/06/01 04:55:09;;;;;;;19.40;11.57;;;;;;;;;;4999247;28;20513;-59
2023/06/01 04:57:36;;;;;;;23.33;12.85;;;;;;;;;;4993601;28;20518;-59
2023/06/01 05:00:12;;;;;;;20.77;10.85;;;;;;;;;;5008765;28;20038;-59
2023/06/01 05:02:43;;;;;;;24.63;12.15;;;;;;;;;;5008749;28;20164;-59
2023/06/01 05:05:11;;;;;;;24.30;11.68;;;;;;;;;;4997854;28;20057;-59
2023/06/01 05:07:39;;;;;;;23.20;11.82;;;;;;;;;;4994286;28;20057;-58
2023/06/01 05:10:07;;;;;;;20.98;10.93;;;;;;;;;;5014369;28;20044;-58
2023/06/01 05:12:41;;;;;;;18.33;11.02;;;;;;;;;;4983800;28;20055;-60
2023/06/01 05:15:11;;;;;;;26.88;13.20;;;;;;;;;;4993007;28;20419;-59
2023/06/01 05:17:38;;;;;;;25.48;12.05;;;;;;;;;;5007419;28;20042;-57
2023/06/01 05:20:11;;;;;;;22.25;12.52;;;;;;;;;;5004744;28;20038;-60
2023/06/01 05:22:37;;;;;;;24.23;12.77;;;;;;;;;;5002974;28;20057;-60
2023/06/01 05:25:05;;;;;;;34.00;13.88;;;;;;;;;;5004351;28;20052;-60
2023/06/01 05:27:32;;;;;;;24.17;13.70;;;;;;;;;;5000188;28;20045;-60
2023/06/01 05:29:58;;;;;;;28.85;13.07;;;;;;;;;;4994117;28;20056;-59
2023/06/01 05:32:25;;;;;;;30.42;14.65;;;;;;;;;;4999671;28;20048;-59
2023/06/01 05:34:52;;;;;;;27.23;13.20;;;;;;;;;;4998634;28;20037;-60
2023/06/01 05:37:19;;;;;;;22.58;12.93;;;;;;;;;;5005688;28;20057;-59
2023/06/01 05:39:45;;;;;;;26.67;13.35;;;;;;;;;;5005514;28;20057;-59
2023/06/01 05:42:12;;;;;;;39.30;15.07;;;;;;;;;;5011406;28;20056;-59
2023/06/01 05:44:40;;;;;;;36.03;14.35;;;;;;;;;;4999890;28;20030;-59
2023/06/01 05:47:06;;;;;;;32.28;15.00;;;;;;;;;;4996398;28;20559;-59
2023/06/01 05:49:35;;;;;;;29.58;14.77;;;;;;;;;;5003909;28;20699;-59
2023/06/01 05:52:01;;;;;;;30.83;15.18;;;;;;;;;;4997258;28;20057;-59
2023/06/01 05:54:28;;;;;;;35.75;15.57;;;;;;;;;;5002210;28;20061;-59
2023/06/01 05:56:55;;;;;;;35.63;14.55;;;;;;;;;;4999719;28;20044;-58
2023/06/01 05:59:21;;;;;;;31.15;15.00;;;;;;;;;;5005270;28;20044;-59
2023/06/01 06:01:48;;;;;;;45.28;15.55;;;;;;;;;;5005740;28;20518;-60
2023/06/01 06:04:15;;;;;;;47.60;16.25;;;;;;;;;;5014586;28;20038;-58
2023/06/01 06:06:41;;;;;;;41.55;15.52;;;;;;;;;;5016489;28;20551;-60
2023/06/01 06:09:07;;;;;;;39.05;15.45;;;;;;;;;;5020071;28;20041;-59
2023/06/01 06:11:33;;;;;;;35.38;14.98;;;;;;;;;;5001732;28;20038;-59
2023/06/01 06:13:59;;;;;;;39.13;15.73;;;;;;;;;;5014924;28;20086;-58
2023/06/01 06:16:25;;;;;;;30.38;15.75;;;;;;;;;;5020980;28;20033;-60
2023/06/01 06:18:51;;;;;;;34.17;15.52;;;;;;;;;;5020751;28;20029;-60
2023/06/01 06:21:17;;;;;;;27.15;12.60;;;;;;;;;;5000171;28;20054;-59
2023/06/01 06:23:45;;;;;;;18.88;10.15;;;;;;;;;;5017284;28;20045;-59
2023/06/01 06:26:11;;;;;;;23.13;11.65;;;;;;;;;;5020740;28;20041;-59
2023/06/01 06:28:37;;;;;;;26.20;12.55;;;;;;;;;;5007364;28;20037;-59
2023/06/01 06:31:03;;;;;;;31.67;12.02;;;;;;;;;;5019912;28;20037;-58
2023/06/01 06:33:30;;;;;;;39.33;12.32;;;;;;;;;;5021089;28;20045;-59
2023/06/01 06:35:56;;;;;;;29.95;11.43;;;;;;;;;;5023411;28;20040;-59
2023/06/01 06:38:22;;;;;;;36.72;11.98;;;;;;;;;;5020512;28;20056;-57
2023/06/01 06:40:49;;;;;;;28.67;11.80;;;;;;;;;;5022671;28;20387;-59
2023/06/01 06:43:15;;;;;;;26.77;10.20;;;;;;;;;;5020669;28;20037;-58
2023/06/01 06:45:41;;;;;;;22.23;10.60;;;;;;;;;;5015445;28;20046;-59
2023/06/01 06:48:07;;;;;;;19.48;10.35;;;;;;;;;;5022466;28;20037;-58
2023/06/01 06:50:38;;;;;;;;;;;;;;;;;;5018225;28;20415;-56
2023/06/01 06:53:05;;;;;;;23.63;9.43;;;;;;;;;;5028032;28;20428;-58
2023/06/01 06:55:31;;;;;;;17.05;8.70;;;;;;;;;;5016070;28;20042;-58
2023/06/01 06:57:57;;;;;;;19.90;9.75;;;;;;;;;;5019042;28;20116;-60
2023/06/01 07:00:23;;;;;;;17.65;8.55;;;;;;;;;;5019824;28;20037;-60
2023/06/01 07:02:49;;;;;;;17.35;8.90;;;;;;;;;;5020163;28;20057;-60
2023/06/01 07:05:15;;;;;;;18.80;9.02;;;;;;;;;;4994973;28;20046;-60
2023/06/01 07:07:42;;;;;;;17.20;8.48;;;;;;;;;;4997525;28;20038;-60
2023/06/01 07:10:08;;;;;;;14.60;8.43;;;;;;;;;;4993851;28;20049;-60
2023/06/01 07:12:34;;;;;;;18.40;8.25;;;;;;;;;;5019432;28;20487;-60
2023/06/01 07:15:02;;;;;;;18.48;8.30;;;;;;;;;;5019187;28;20050;-59
2023/06/01 07:17:28;;;;;;;16.05;8.48;;;;;;;;;;5013347;28;20061;-60
2023/06/01 07:19:54;;;;;;;42.47;7.93;;;;;;;;;;5015412;28;20109;-60
2023/06/01 07:22:21;;;;;;;16.83;9.45;;;;;;;;;;5018913;28;20044;-59
2023/06/01 07:24:49;;;;;;;15.90;8.57;;;;;;;;;;5015569;28;20053;-59
2023/06/01 07:27:16;;;;;;;19.35;9.15;;;;;;;;;;5014250;28;20050;-58
2023/06/01 07:29:44;;;;;;;12.73;8.10;;;;;;;;;;5011858;28;20427;-59
2023/06/01 07:32:13;;;;;;;14.02;8.82;;;;;;;;;;5017704;28;20050;-59
2023/06/01 07:34:39;;;;;;;15.45;8.18;;;;;;;;;;5016066;28;20392;-59
2023/06/01 07:37:07;;;;;;;17.80;8.77;;;;;;;;;;5018881;28;20517;-59
2023/06/01 07:39:33;;;;;;;16.10;8.63;;;;;;;;;;5020843;28;20041;-59
2023/06/01 07:41:59;;;;;;;14.13;8.07;;;;;;;;;;5017794;28;20054;-60
2023/06/01 07:44:26;;;;;;;15.05;8.68;;;;;;;;;;5014046;28;20522;-58
2023/06/01 07:46:52;;;;;;;13.38;8.70;;;;;;;;;;4998339;28;20057;-59
2023/06/01 07:49:19;;;;;;;13.80;8.32;;;;;;;;;;5013681;28;20050;-58
2023/06/01 07:51:45;;;;;;;16.02;8.30;;;;;;;;;;4999729;28;20045;-58
2023/06/01 07:54:11;;;;;;;11.57;8.48;;;;;;;;;;5016306;28;20033;-58
2023/06/01 07:56:37;;;;;;;25.85;8.20;;;;;;;;;;5011944;28;20121;-58
2023/06/01 07:59:03;;;;;;;16.00;8.50;;;;;;;;;;4978100;28;20045;-58
2023/06/01 08:01:30;;;;;;;13.02;8.32;;;;;;;;;;5020742;28;20045;-58
2023/06/01 08:03:56;;;;;;;16.25;9.18;;;;;;;;;;5016155;28;20036;-58
2023/06/01 08:06:23;;;;;;;14.35;8.40;;;;;;;;;;5017985;28;20034;-58
2023/06/01 08:08:50;;;;;;;18.92;9.18;;;;;;;;;;5007492;28;20395;-58
2023/06/01 08:11:17;;;;;;;15.15;8.93;;;;;;;;;;5016357;28;20041;-58
2023/06/01 08:13:45;;;;;;;14.25;8.55;;;;;;;;;;5016309;28;20037;-58
2023/06/01 08:16:15;;;;;;;16.40;7.95;;;;;;;;;;5014180;28;20040;-58
2023/06/01 08:18:41;;;;;;;14.40;9.23;;;;;;;;;;5014425;28;20062;-59
2023/06/01 08:21:09;;;;;;;14.35;8.13;;;;;;;;;;5015019;28;20033;-58
2023/06/01 08:23:35;;;;;;;14.00;7.80;;;;;;;;;;5016601;28;20057;-57
2023/06/01 08:26:02;;;;;;;14.45;8.43;;;;;;;;;;5014046;28;20199;-58
2023/06/01 08:28:28;;;;;;;14.23;7.70;;;;;;;;;;5017218;28;20041;-57
2023/06/01 08:30:54;;;;;;;15.48;8.85;;;;;;;;;;5012314;28;20050;-57
2023/06/01 08:33:20;;;;;;;11.35;8.02;;;;;;;;;;5017135;28;20033;-58
2023/06/01 08:35:46;;;;;;;15.00;8.32;;;;;;;;;;5016566;28;20030;-58
2023/06/01 08:38:12;;;;;;;14.05;8.27;;;;;;;;;;5020924;28;20049;-58
2023/06/01 08:40:40;;;;;;;14.57;8.65;;;;;;;;;;5023356;28;20053;-58
2023/06/01 08:43:14;;;;;;;17.40;9.55;;;;;;;;;;5016891;28;20052;-58
2023/06/01 08:45:41;;;;;;;13.95;8.95;;;;;;;;;;4996352;28;20095;-59
2023/06/01 08:48:08;;;;;;;13.13;8.02;;;;;;;;;;5013597;28;20044;-59
2023/06/01 08:50:35;;;;;;;15.55;8.13;;;;;;;;;;5013197;28;20038;-57
2023/06/01 08:53:02;;;;;;;11.93;7.80;;;;;;;;;;5021383;28;20022;-59
2023/06/01 08:55:28;;;;;;;19.25;7.93;;;;;;;;;;5017707;28;20455;-59
2023/06/01 08:57:55;;;;;;;11.35;8.07;;;;;;;;;;5017319;28;20034;-59
2023/06/01 09:00:21;;;;;;;13.38;8.30;;;;;;;;;;5019855;28;20452;-59
2023/06/01 09:02:48;;;;;;;12.45;8.15;;;;;;;;;;5019775;28;20052;-59
2023/06/01 09:05:15;;;;;;;14.15;7.53;;;;;;;;;;5002407;28;20033;-59
2023/06/01 09:07:41;;;;;;;12.02;7.68;;;;;;;;;;5016340;28;20057;-58
2023/06/01 09:10:07;;;;;;;11.82;7.97;;;;;;;;;;5017810;28;20045;-59
2023/06/01 09:12:33;;;;;;;13.30;7.95;;;;;;;;;;5021540;28;20407;-58
2023/06/01 09:15:16;;;;;;;12.00;7.45;;;;;;;;;;5017804;28;20045;-58
2023/06/01 09:17:43;;;;;;;16.00;7.28;;;;;;;;;;5016636;28;20045;-59
2023/06/01 09:20:13;;;;;;;10.73;7.18;;;;;;;;;;5019727;28;20038;-59
2023/06/01 09:22:45;;;;;;;12.27;7.90;;;;;;;;;;5019422;28;20044;-58
2023/06/01 09:25:13;;;;;;;16.10;7.45;;;;;;;;;;5017724;28;20053;-58
2023/06/01 09:27:46;;;;;;;14.02;7.43;;;;;;;;;;5018188;28;20053;-58
2023/06/01 09:30:13;;;;;;;13.65;7.40;;;;;;;;;;5020940;28;20037;-57
2023/06/01 09:32:41;;;;;;;15.07;7.80;;;;;;;;;;5016858;28;20064;-59
2023/06/01 09:35:07;;;;;;;12.70;7.40;;;;;;;;;;5016084;28;20041;-60
2023/06/01 09:37:34;;;;;;;14.80;7.20;;;;;;;;;;5022689;28;20057;-57
2023/06/01 09:40:03;;;;;;;13.15;8.02;;;;;;;;;;5024370;28;20056;-60
2023/06/01 09:42:35;;;;;;;12.25;7.47;;;;;;;;;;5017037;28;20050;-58
2023/06/01 09:45:17;;;;;;;13.60;7.47;;;;;;;;;;5020739;28;20045;-58
2023/06/01 09:47:43;;;;;;;12.65;7.00;;;;;;;;;;5017739;28;20060;-58
2023/06/01 09:50:10;;;;;;;20.88;7.70;;;;;;;;;;5002653;28;20053;-58
2023/06/01 09:52:37;;;;;;;11.73;7.07;;;;;;;;;;5020972;28;20052;-56
2023/06/01 09:55:08;;;;;;;15.13;7.50;;;;;;;;;;5019728;28;20044;-59
2023/06/01 09:57:34;;;;;;;13.85;8.18;;;;;;;;;;5017913;28;20411;-58
2023/06/01 10:00:06;;;;;;;12.77;7.50;;;;;;;;;;5012341;28;20424;-55
2023/06/01 10:02:36;;;;;;;10.00;7.28;;;;;;;;;;5019706;28;20057;-59
2023/06/01 10:05:02;;;;;;;14.57;7.70;;;;;;;;;;5018998;28;20045;-58
2023/06/01 10:07:33;;;;;;;11.00;7.07;;;;;;;;;;5019373;28;20414;-59
2023/06/01 10:10:02;;;;;;;14.60;7.75;;;;;;;;;;5016440;28;20062;-58
2023/06/01 10:12:28;;;;;;;10.82;6.90;;;;;;;;;;4999623;28;20037;-58
2023/06/01 10:14:56;;;;;;;11.57;7.43;;;;;;;;;;5016488;28;20472;-59
2023/06/01 10:17:22;;;;;;;11.05;7.55;;;;;;;;;;5017242;28;20038;-59
2023/06/01 10:19:49;;;;;;;17.25;7.68;;;;;;;;;;5016752;28;20053;-59
2023/06/01 10:22:16;;;;;;;11.18;6.75;;;;;;;;;;5014795;28;20052;-59
2023/06/01 10:24:42;;;;;;;16.42;8.27;;;;;;;;;;4996424;28;20483;-59
2023/06/01 10:27:15;;;;;;;13.23;7.60;;;;;;;;;;5019199;28;20566;-59
2023/06/01 10:29:43;;;;;;;12.07;7.32;;;;;;;;;;5016391;28;20041;-59
2023/06/01 10:32:42;;;;;;;13.23;7.63;;;;;;;;;;5015627;28;20352;-59
2023/06/01 10:35:10;;;;;;;11.38;7.30;;;;;;;;;;5007210;28;20415;-59
2023/06/01 10:37:36;;;;;;;10.50;6.97;;;;;;;;;;5002824;28;20381;-59
2023/06/01 10:40:23;;;;;;;10.90;7.25;;;;;;;;;;5022688;28;20041;-59
2023/06/01 10:42:50;;;;;;;11.23;7.10;;;;;;;;;;5017453;28;20050;-59
2023/06/01 10:45:40;;;;;;;10.48;6.93;;;;;;;;;;5018006;28;20041;-58
2023/06/01 10:48:11;;;;;;;11.18;7.05;;;;;;;;;;5014639;28;20073;-58
2023/06/01 10:50:42;;;;;;;11.70;7.20;;;;;;;;;;5018117;28;20048;-58
2023/06/01 10:53:31;;;;;;;11.68;7.40;;;;;;;;;;5021450;28;20041;-58
2023/06/01 10:56:28;;;;;;;12.30;7.30;;;;;;;;;;5016326;28;20042;-58
2023/06/01 10:59:07;;;;;;;12.40;7.72;;;;;;;;;;4986051;28;20052;-58
2023/06/01 11:01:37;;;;;;;12.10;7.10;;;;;;;;;;5015589;28;20049;-57
2023/06/01 11:04:04;;;;;;;14.65;7.45;;;;;;;;;;5019897;28;20044;-59
2023/06/01 11:06:33;;;;;;;12.18;7.72;;;;;;;;;;5017629;28;20064;-59
2023/06/01 11:09:01;;;;;;;13.55;6.95;;;;;;;;;;5015009;28;20049;-59
2023/06/01 11:11:50;;;;;;;12.18;6.85;;;;;;;;;;5015450;28;20499;-58
2023/06/01 11:14:23;;;;;;;10.80;6.82;;;;;;;;;;5016268;28;20650;-58
2023/06/01 11:16:50;;;;;;;10.70;6.78;;;;;;;;;;5014744;28;20052;-58
2023/06/01 11:19:20;;;;;;;11.80;6.85;;;;;;;;;;5013128;28;20045;-59
2023/06/01 11:21:46;;;;;;;12.23;7.07;;;;;;;;;;4998134;28;20492;-59
2023/06/01 11:24:17;;;;;;;11.77;6.68;;;;;;;;;;5017554;28;20056;-57
2023/06/01 11:26:43;;;;;;;11.73;7.35;;;;;;;;;;5014622;28;20060;-59
2023/06/01 11:29:22;;;;;;;11.32;7.10;;;;;;;;;;5014783;28;20042;-60
2023/06/01 11:31:54;;;;;;;17.83;6.82;;;;;;;;;;4996138;28;20045;-60
2023/06/01 11:34:38;;;;;;;10.55;7.07;;;;;;;;;;5017849;28;20034;-59
2023/06/01 11:37:06;;;;;;;11.57;7.45;;;;;;;;;;5017959;28;20087;-59
2023/06/01 11:39:32;;;;;;;11.57;6.88;;;;;;;;;;5023238;28;20052;-59
2023/06/01 11:42:08;;;;;;;11.10;6.95;;;;;;;;;;5014349;28;20040;-60
2023/06/01 11:44:37;;;;;;;9.75;6.72;;;;;;;;;;5011610;28;20046;-57
2023/06/01 11:47:05;;;;;;;11.70;6.57;;;;;;;;;;5014463;28;20042;-60
2023/06/01 11:49:44;;;;;;;12.50;6.90;;;;;;;;;;5017199;28;20037;-59
2023/06/01 11:52:10;;;;;;;;;;;;;;;;;;5015657;28;20052;-60
2023/06/01 11:54:37;;;;;;;11.23;6.78;;;;;;;;;;5023614;28;19921;-59
2023/06/01 11:57:05;;;;;;;10.77;6.45;;;;;;;;;;5014594;28;20050;-59
2023/06/01 11:59:44;;;;;;;9.68;6.82;;;;;;;;;;5016037;28;20072;-59
2023/06/01 12:02:29;;;;;;;11.73;6.82;;;;;;;;;;5020125;28;20049;-59
2023/06/01 12:05:06;;;;;;;11.65;6.05;;;;;;;;;;5004074;28;20037;-60
2023/06/01 12:07:43;;;;;;;15.30;6.85;;;;;;;;;;5012537;28;20029;-59
2023/06/01 12:10:14;;;;;;;8.57;6.07;;;;;;;;;;5015155;28;20238;-58
2023/06/01 12:12:42;;;;;;;9.68;6.40;;;;;;;;;;5021092;28;20045;-60
2023/06/01 12:15:10;;;;;;;8.63;6.50;;;;;;;;;;5020876;28;20029;-59
2023/06/01 12:17:50;;;;;;;11.45;6.18;;;;;;;;;;5026213;28;20068;-60
2023/06/01 12:20:35;;;;;;;14.18;7.43;;;;;;;;;;5019156;28;20049;-60
2023/06/01 12:23:13;;;;;;;12.57;7.07;;;;;;;;;;5015383;28;20057;-59
2023/06/01 12:25:53;;;;;;;10.57;6.50;;;;;;;;;;5012508;28;20053;-61
2023/06/01 12:28:21;;;;;;;11.35;6.50;;;;;;;;;;5013970;28;20118;-60
2023/06/01 12:30:48;;;;;;;11.87;6.43;;;;;;;;;;5015112;28;20049;-56
2023/06/01 12:33:32;;;;;;;9.73;6.45;;;;;;;;;;5024714;28;20407;-59
2023/06/01 12:35:58;;;;;;;8.98;6.25;;;;;;;;;;5022400;28;20036;-59
2023/06/01 12:38:25;;;;;;;10.40;6.47;;;;;;;;;;5021064;28;20044;-59
2023/06/01 12:41:11;;;;;;;10.57;6.65;;;;;;;;;;5018080;28;20073;-60
2023/06/01 12:43:39;;;;;;;12.65;6.53;;;;;;;;;;5024861;28;20038;-60
2023/06/01 12:46:05;;;;;;;12.18;6.35;;;;;;;;;;5011096;28;20057;-60
2023/06/01 12:48:33;;;;;;;10.90;7.00;;;;;;;;;;5016517;28;20053;-60
2023/06/01 12:50:59;;;;;;;12.55;6.70;;;;;;;;;;5016774;28;20060;-60
2023/06/01 12:53:26;;;;;;;15.38;7.25;;;;;;;;;;5014044;28;20034;-60
2023/06/01 12:55:52;;;;;;;10.75;6.85;;;;;;;;;;5014368;28;20049;-59
2023/06/01 12:58:19;;;;;;;12.57;7.20;;;;;;;;;;5015806;28;20045;-60
2023/06/01 13:00:45;;;;;;;16.52;7.07;;;;;;;;;;5012576;28;20044;-60
2023/06/01 13:03:11;;;;;;;10.10;6.85;;;;;;;;;;5015866;28;20422;-60
2023/06/01 13:05:40;;;;;;;15.27;7.47;;;;;;;;;;5015484;28;20246;-60
2023/06/01 13:08:08;;;;;;;14.40;7.72;;;;;;;;;;5013087;28;20049;-59
2023/06/01 13:10:34;;;;;;;12.55;7.18;;;;;;;;;;5014124;28;20054;-59
2023/06/01 13:13:00;;;;;;;11.52;6.85;;;;;;;;;;5007650;28;20448;-59
2023/06/01 13:15:26;;;;;;;9.98;6.90;;;;;;;;;;5014419;28;20049;-59
2023/06/01 13:17:55;;;;;;;13.00;7.25;;;;;;;;;;5012483;28;20046;-60
2023/06/01 13:20:21;;;;;;;11.00;7.57;;;;;;;;;;5019223;28;20052;-60
2023/06/01 13:22:48;;;;;;;12.63;7.13;;;;;;;;;;5014603;28;20040;-60
2023/06/01 13:25:14;;;;;;;9.32;6.88;;;;;;;;;;5005983;28;20029;-60
2023/06/01 13:27:40;;;;;;;15.50;7.47;;;;;;;;;;5019442;28;20729;-60
2023/06/01 13:30:07;;;;;;;13.27;7.03;;;;;;;;;;4998440;28;20040;-60
2023/06/01 13:32:34;;;;;;;12.40;7.15;;;;;;;;;;5014231;28;20050;-59
2023/06/01 13:35:00;;;;;;;11.60;7.22;;;;;;;;;;5013268;28;20459;-59
2023/06/01 13:37:26;;;;;;;17.13;7.00;;;;;;;;;;5021452;28;20042;-59
2023/06/01 13:39:52;;;;;;;11.90;7.70;;;;;;;;;;5024347;28;20060;-60
2023/06/01 13:42:18;;;;;;;11.27;7.65;;;;;;;;;;5016616;28;20114;-59
2023/06/01 13:44:46;;;;;;;13.25;7.80;;;;;;;;;;5017348;28;20053;-59
2023/06/01 13:47:16;;;;;;;12.73;7.80;;;;;;;;;;5016487;28;20045;-60
2023/06/01 13:49:45;;;;;;;13.00;7.97;;;;;;;;;;5026044;28;20042;-59
2023/06/01 13:52:12;;;;;;;12.15;7.50;;;;;;;;;;5014532;28;20056;-60
2023/06/01 13:54:38;;;;;;;12.57;8.18;;;;;;;;;;5017159;28;20499;-59
2023/06/01 13:57:05;;;;;;;11.43;7.80;;;;;;;;;;5017710;28;20037;-60
2023/06/01 13:59:33;;;;;;;11.18;7.40;;;;;;;;;;4997228;28;20053;-60
2023/06/01 14:01:59;;;;;;;11.25;7.30;;;;;;;;;;5021788;28;20052;-59
2023/06/01 14:04:25;;;;;;;10.75;7.32;;;;;;;;;;5017502;28;20045;-59
2023/06/01 14:06:51;;;;;;;13.07;8.00;;;;;;;;;;5019369;28;20029;-60
2023/06/01 14:09:18;;;;;;;11.45;6.80;;;;;;;;;;5024143;28;20052;-59
2023/06/01 14:11:44;;;;;;;11.95;6.90;;;;;;;;;;5016522;28;20057;-59
2023/06/01 14:14:11;;;;;;;13.30;8.10;;;;;;;;;;5016702;28;20029;-59
2023/06/01 14:16:37;;;;;;;13.23;7.65;;;;;;;;;;5015602;28;20042;-59
2023/06/01 14:19:03;;;;;;;13.40;7.53;;;;;;;;;;5021636;28;20033;-59
2023/06/01 14:21:30;;;;;;;12.63;7.38;;;;;;;;;;5020971;28;20037;-59
2023/06/01 14:23:57;;;;;;;14.07;8.23;;;;;;;;;;5020747;28;20042;-59
2023/06/01 14:26:23;;;;;;;12.98;7.22;;;;;;;;;;5027080;28;20049;-60
2023/06/01 14:28:50;;;;;;;12.63;7.03;;;;;;;;;;5018918;28;20431;-60
2023/06/01 14:31:16;;;;;;;11.98;7.95;;;;;;;;;;5028386;28;20037;-60
2023/06/01 14:33:42;;;;;;;13.43;7.80;;;;;;;;;;5015105;28;20041;-60
2023/06/01 14:36:09;;;;;;;13.10;7.80;;;;;;;;;;5026999;28;20034;-60
2023/06/01 14:38:35;;;;;;;12.32;8.00;;;;;;;;;;5029066;28;20067;-60
2023/06/01 14:41:01;;;;;;;14.52;7.72;;;;;;;;;;5024515;28;20404;-60